sensor_id;sensor_type;location;lat;lon;timestamp;pressure;altitude;pressure_sealevel;temperature;humidity
22047;BME280;11187;49.412;20.956;2022-10-16T00:02:16;95425.00;;;8.65;100.00
22047;BME280;11187;49.412;20.956;2022-10-16T00:05:10;95424.16;;;8.62;100.00
22047;BME280;11187;49.412;20.956;2022-10-16T00:07:44;95434.38;;;8.63;100.00
22047;BME280;11187;49.412;20.956;2022-10-16T00:10:30;95425.84;;;8.64;100.00
22047;BME280;11187;49.412;20.956;2022-10-16T00:13:04;95430.13;;;8.65;100.00
22047;BME280;11187;49.412;20.956;2022-10-16T00:15:54;95431.81;;;8.63;100.00
22047;BME280;11187;49.412;20.956;2022-10-16T00:18:28;95439.44;;;8.65;100.00
22047;BME280;11187;49.412;20.956;2022-10-16T00:21:20;95437.75;;;8.67;100.00
22047;BME280;11187;49.412;20.956;2022-10-16T00:24:12;95440.28;;;8.70;100.00
22047;BME280;11187;49.412;20.956;2022-10-16T00:26:58;95446.22;;;8.72;100.00
22047;BME280;11187;49.412;20.956;2022-10-16T00:29:32;95447.94;;;8.74;100.00
22047;BME280;11187;49.412;20.956;2022-10-16T00:32:19;95453.00;;;8.76;100.00
22047;BME280;11187;49.412;20.956;2022-10-16T00:34:53;95453.00;;;8.79;100.00
22047;BME280;11187;49.412;20.956;2022-10-16T00:37:39;95451.28;;;8.81;100.00
22047;BME280;11187;49.412;20.956;2022-10-16T00:40:13;95458.91;;;8.84;100.00
22047;BME280;11187;49.412;20.956;2022-10-16T00:42:59;95461.44;;;8.87;100.00
22047;BME280;11187;49.412;20.956;2022-10-16T00:45:33;95464.84;;;8.91;100.00
22047;BME280;11187;49.412;20.956;2022-10-16T00:48:19;95463.97;;;8.95;100.00
22047;BME280;11187;49.412;20.956;2022-10-16T00:50:57;95465.63;;;8.99;100.00
22047;BME280;11187;49.412;20.956;2022-10-16T00:53:52;95463.91;;;9.03;100.00
22047;BME280;11187;49.412;20.956;2022-10-16T00:56:46;95467.31;;;9.06;100.00
22047;BME280;11187;49.412;20.956;2022-10-16T00:59:23;95467.25;;;9.09;100.00
22047;BME280;11187;49.412;20.956;2022-10-16T01:02:13;95470.63;;;9.13;100.00
22047;BME280;11187;49.412;20.956;2022-10-16T01:04:50;95466.34;;;9.15;100.00
22047;BME280;11187;49.412;20.956;2022-10-16T01:07:50;95465.47;;;9.19;100.00
22047;BME280;11187;49.412;20.956;2022-10-16T01:10:35;95468.88;;;9.23;100.00
22047;BME280;11187;49.412;20.956;2022-10-16T01:13:36;95466.28;;;9.24;100.00
22047;BME280;11187;49.412;20.956;2022-10-16T01:16:17;95473.94;;;9.27;100.00
22047;BME280;11187;49.412;20.956;2022-10-16T01:19:17;95468.81;;;9.32;100.00
22047;BME280;11187;49.412;20.956;2022-10-16T01:22:13;95479.81;;;9.35;100.00
22047;BME280;11187;49.412;20.956;2022-10-16T01:24:48;95484.09;;;9.38;100.00
22047;BME280;11187;49.412;20.956;2022-10-16T01:27:36;95473.00;;;9.40;100.00
22047;BME280;11187;49.412;20.956;2022-10-16T01:30:17;95480.63;;;9.44;100.00
22047;BME280;11187;49.412;20.956;2022-10-16T01:33:24;95478.03;;;9.47;100.00
22047;BME280;11187;49.412;20.956;2022-10-16T01:36:24;95487.38;;;9.51;100.00
22047;BME280;11187;49.412;20.956;2022-10-16T01:39:22;95483.09;;;9.53;100.00
22047;BME280;11187;49.412;20.956;2022-10-16T01:42:22;95484.78;;;9.55;100.00
22047;BME280;11187;49.412;20.956;2022-10-16T01:45:01;95481.34;;;9.58;100.00
22047;BME280;11187;49.412;20.956;2022-10-16T01:47:51;95486.47;;;9.61;100.00
22047;BME280;11187;49.412;20.956;2022-10-16T01:50:26;95484.75;;;9.63;100.00
22047;BME280;11187;49.412;20.956;2022-10-16T01:53:15;95483.88;;;9.66;100.00
22047;BME280;11187;49.412;20.956;2022-10-16T01:55:50;95482.13;;;9.68;100.00
22047;BME280;11187;49.412;20.956;2022-10-16T01:58:42;95488.09;;;9.70;100.00
22047;BME280;11187;49.412;20.956;2022-10-16T02:01:23;95483.78;;;9.73;100.00
22047;BME280;11187;49.412;20.956;2022-10-16T02:04:17;95488.84;;;9.76;100.00
22047;BME280;11187;49.412;20.956;2022-10-16T02:06:52;95483.75;;;9.78;100.00
22047;BME280;11187;49.412;20.956;2022-10-16T02:09:40;95487.13;;;9.81;100.00
22047;BME280;11187;49.412;20.956;2022-10-16T02:12:24;95481.13;;;9.82;100.00
22047;BME280;11187;49.412;20.956;2022-10-16T02:15:19;95484.53;;;9.85;100.00
22047;BME280;11187;49.412;20.956;2022-10-16T02:17:53;95483.66;;;9.87;100.00
22047;BME280;11187;49.412;20.956;2022-10-16T02:20:57;95483.63;;;9.90;100.00
22047;BME280;11187;49.412;20.956;2022-10-16T02:23:42;95483.59;;;9.92;100.00
22047;BME280;11187;49.412;20.956;2022-10-16T02:26:46;95491.28;;;9.93;100.00
22047;BME280;11187;49.412;20.956;2022-10-16T02:29:46;95495.50;;;9.96;100.00
22047;BME280;11187;49.412;20.956;2022-10-16T02:32:24;95494.63;;;9.97;100.00
22047;BME280;11187;49.412;20.956;2022-10-16T02:35:19;95495.50;;;9.97;100.00
22047;BME280;11187;49.412;20.956;2022-10-16T02:38:15;95503.13;;;9.99;100.00
22047;BME280;11187;49.412;20.956;2022-10-16T02:41:10;95502.28;;;10.01;100.00
22047;BME280;11187;49.412;20.956;2022-10-16T02:43:43;95501.41;;;10.02;100.00
22047;BME280;11187;49.412;20.956;2022-10-16T02:46:30;95501.41;;;10.04;100.00
22047;BME280;11187;49.412;20.956;2022-10-16T02:49:08;95503.06;;;10.07;100.00
22047;BME280;11187;49.412;20.956;2022-10-16T02:51:55;95506.47;;;10.09;100.00
22047;BME280;11187;49.412;20.956;2022-10-16T02:54:29;95509.00;;;10.10;100.00
22047;BME280;11187;49.412;20.956;2022-10-16T02:57:15;95513.25;;;10.11;100.00
22047;BME280;11187;49.412;20.956;2022-10-16T02:59:49;95517.50;;;10.14;100.00
22047;BME280;11187;49.412;20.956;2022-10-16T03:02:37;95516.63;;;10.15;100.00
22047;BME280;11187;49.412;20.956;2022-10-16T03:05:10;95515.75;;;10.17;100.00
22047;BME280;11187;49.412;20.956;2022-10-16T03:07:56;95518.28;;;10.20;100.00
22047;BME280;11187;49.412;20.956;2022-10-16T03:10:33;95522.56;;;10.20;100.00
22047;BME280;11187;49.412;20.956;2022-10-16T03:13:19;95514.88;;;10.20;100.00
22047;BME280;11187;49.412;20.956;2022-10-16T03:15:53;95523.41;;;10.20;100.00
22047;BME280;11187;49.412;20.956;2022-10-16T03:18:49;95517.41;;;10.23;100.00
22047;BME280;11187;49.412;20.956;2022-10-16T03:21:43;95512.28;;;10.24;100.00
22047;BME280;11187;49.412;20.956;2022-10-16T03:24:16;95514.84;;;10.24;100.00
22047;BME280;11187;49.412;20.956;2022-10-16T03:27:02;95524.19;;;10.25;100.00
22047;BME280;11187;49.412;20.956;2022-10-16T03:29:37;95520.78;;;10.27;100.00
22047;BME280;11187;49.412;20.956;2022-10-16T03:32:23;95514.78;;;10.28;100.00
22047;BME280;11187;49.412;20.956;2022-10-16T03:34:58;95523.31;;;10.28;100.00
22047;BME280;11187;49.412;20.956;2022-10-16T03:37:44;95525.88;;;10.30;100.00
22047;BME280;11187;49.412;20.956;2022-10-16T03:40:18;95521.63;;;10.30;100.00
22047;BME280;11187;49.412;20.956;2022-10-16T03:43:06;95536.13;;;10.31;100.00
22047;BME280;11187;49.412;20.956;2022-10-16T03:45:45;95532.69;;;10.32;100.00
22047;BME280;11187;49.412;20.956;2022-10-16T03:48:39;95542.06;;;10.33;100.00
22047;BME280;11187;49.412;20.956;2022-10-16T03:51:35;95536.97;;;10.33;100.00
22047;BME280;11187;49.412;20.956;2022-10-16T03:54:10;95535.25;;;10.32;100.00
22047;BME280;11187;49.412;20.956;2022-10-16T03:56:56;95542.06;;;10.33;100.00
22047;BME280;11187;49.412;20.956;2022-10-16T03:59:30;95542.03;;;10.35;100.00
22047;BME280;11187;49.412;20.956;2022-10-16T04:02:19;95542.03;;;10.35;100.00
22047;BME280;11187;49.412;20.956;2022-10-16T04:04:53;95550.56;;;10.37;100.00
22047;BME280;11187;49.412;20.956;2022-10-16T04:07:39;95540.31;;;10.37;100.00
22047;BME280;11187;49.412;20.956;2022-10-16T04:10:13;95543.69;;;10.39;100.00
22047;BME280;11187;49.412;20.956;2022-10-16T04:13:00;95540.31;;;10.38;100.00
22047;BME280;11187;49.412;20.956;2022-10-16T04:15:33;95540.25;;;10.41;100.00
22047;BME280;11187;49.412;20.956;2022-10-16T04:18:20;95535.13;;;10.41;100.00
22047;BME280;11187;49.412;20.956;2022-10-16T04:20:53;95539.41;;;10.42;100.00
22047;BME280;11187;49.412;20.956;2022-10-16T04:23:42;95535.13;;;10.43;100.00
22047;BME280;11187;49.412;20.956;2022-10-16T04:26:15;95534.25;;;10.44;100.00
22047;BME280;11187;49.412;20.956;2022-10-16T04:29:01;95541.09;;;10.43;100.00
22047;BME280;11187;49.412;20.956;2022-10-16T04:31:35;95551.31;;;10.45;100.00
22047;BME280;11187;49.412;20.956;2022-10-16T04:34:24;95556.44;;;10.45;100.00
22047;BME280;11187;49.412;20.956;2022-10-16T04:36:57;95551.31;;;10.45;100.00
22047;BME280;11187;49.412;20.956;2022-10-16T04:39:51;95551.31;;;10.45;100.00
22047;BME280;11187;49.412;20.956;2022-10-16T04:42:45;95558.13;;;10.46;100.00
22047;BME280;11187;49.412;20.956;2022-10-16T04:45:19;95551.28;;;10.47;100.00
22047;BME280;11187;49.412;20.956;2022-10-16T04:48:13;95561.53;;;10.47;100.00
22047;BME280;11187;49.412;20.956;2022-10-16T04:51:07;95573.47;;;10.48;100.00
22047;BME280;11187;49.412;20.956;2022-10-16T04:53:40;95571.75;;;10.48;100.00
22047;BME280;11187;49.412;20.956;2022-10-16T04:56:33;95574.31;;;10.48;100.00
22047;BME280;11187;49.412;20.956;2022-10-16T04:59:33;95571.75;;;10.50;100.00
22047;BME280;11187;49.412;20.956;2022-10-16T05:02:06;95581.13;;;10.51;100.00
22047;BME280;11187;49.412;20.956;2022-10-16T05:04:55;95580.28;;;10.52;100.00
22047;BME280;11187;49.412;20.956;2022-10-16T05:07:38;95577.72;;;10.52;100.00
22047;BME280;11187;49.412;20.956;2022-10-16T05:10:31;95578.56;;;10.52;100.00
22047;BME280;11187;49.412;20.956;2022-10-16T05:13:05;95586.22;;;10.52;100.00
22047;BME280;11187;49.412;20.956;2022-10-16T05:15:52;95587.91;;;10.55;100.00
22047;BME280;11187;49.412;20.956;2022-10-16T05:18:25;95586.19;;;10.55;100.00
22047;BME280;11187;49.412;20.956;2022-10-16T05:21:19;95590.47;;;10.56;100.00
22047;BME280;11187;49.412;20.956;2022-10-16T05:24:13;95593.84;;;10.58;100.00
22047;BME280;11187;49.412;20.956;2022-10-16T05:27:07;95585.28;;;10.59;100.00
22047;BME280;11187;49.412;20.956;2022-10-16T05:30:05;95588.69;;;10.60;100.00
22047;BME280;11187;49.412;20.956;2022-10-16T05:32:39;95593.81;;;10.63;100.00
22047;BME280;11187;49.412;20.956;2022-10-16T05:35:26;95601.50;;;10.63;100.00
22047;BME280;11187;49.412;20.956;2022-10-16T05:38:13;95602.28;;;10.65;100.00
22047;BME280;11187;49.412;20.956;2022-10-16T05:41:07;95610.81;;;10.69;100.00
22047;BME280;11187;49.412;20.956;2022-10-16T05:44:04;95611.63;;;10.72;100.00
22047;BME280;11187;49.412;20.956;2022-10-16T05:46:37;95618.38;;;10.76;100.00
22047;BME280;11187;49.412;20.956;2022-10-16T05:49:31;95626.03;;;10.81;100.00
22047;BME280;11187;49.412;20.956;2022-10-16T05:52:07;95629.41;;;10.86;100.00
22047;BME280;11187;49.412;20.956;2022-10-16T05:54:54;95623.38;;;10.90;100.00
22047;BME280;11187;49.412;20.956;2022-10-16T05:57:27;95627.56;;;10.96;100.00
22047;BME280;11187;49.412;20.956;2022-10-16T06:00:21;95629.25;;;11.00;100.00
22047;BME280;11187;49.412;20.956;2022-10-16T06:03:15;95620.66;;;11.02;100.00
22047;BME280;11187;49.412;20.956;2022-10-16T06:05:48;95628.28;;;11.07;100.00
22047;BME280;11187;49.412;20.956;2022-10-16T06:08:35;95625.72;;;11.08;100.00
22047;BME280;11187;49.412;20.956;2022-10-16T06:11:12;95625.69;;;11.12;100.00
22047;BME280;11187;49.412;20.956;2022-10-16T06:14:06;95629.06;;;11.14;100.00
22047;BME280;11187;49.412;20.956;2022-10-16T06:16:42;95633.31;;;11.16;100.00
22047;BME280;11187;49.412;20.956;2022-10-16T06:19:36;95635.81;;;11.19;100.00
22047;BME280;11187;49.412;20.956;2022-10-16T06:22:09;95640.94;;;11.22;100.00
22047;BME280;11187;49.412;20.956;2022-10-16T06:25:03;95640.88;;;11.24;100.00
22047;BME280;11187;49.412;20.956;2022-10-16T06:27:57;95646.00;;;11.27;100.00
22047;BME280;11187;49.412;20.956;2022-10-16T06:30:30;95634.84;;;11.29;100.00
22047;BME280;11187;49.412;20.956;2022-10-16T06:33:17;95641.66;;;11.32;100.00
22047;BME280;11187;49.412;20.956;2022-10-16T06:35:50;95651.84;;;11.35;100.00
22047;BME280;11187;49.412;20.956;2022-10-16T06:38:38;95650.13;;;11.37;100.00
22047;BME280;11187;49.412;20.956;2022-10-16T06:41:19;95664.59;;;11.43;100.00
22047;BME280;11187;49.412;20.956;2022-10-16T06:44:17;95663.69;;;11.45;100.00
22047;BME280;11187;49.412;20.956;2022-10-16T06:46:50;95669.59;;;11.50;100.00
22047;BME280;11187;49.412;20.956;2022-10-16T06:49:37;95670.44;;;11.54;100.00
22047;BME280;11187;49.412;20.956;2022-10-16T06:52:19;95668.59;;;11.62;100.00
22047;BME280;11187;49.412;20.956;2022-10-16T06:55:06;95671.06;;;11.70;100.00
22047;BME280;11187;49.412;20.956;2022-10-16T06:57:39;95673.47;;;11.81;100.00
22047;BME280;11187;49.412;20.956;2022-10-16T07:00:26;95671.63;;;11.92;100.00
22047;BME280;11187;49.412;20.956;2022-10-16T07:02:59;95673.94;;;12.09;100.00
22047;BME280;11187;49.412;20.956;2022-10-16T07:05:53;95666.94;;;12.20;100.00
22047;BME280;11187;49.412;20.956;2022-10-16T07:08:26;95671.03;;;12.30;100.00
22047;BME280;11187;49.412;20.956;2022-10-16T07:11:22;95674.25;;;12.45;100.00
22047;BME280;11187;49.412;20.956;2022-10-16T07:14:19;95674.84;;;12.61;100.00
22047;BME280;11187;49.412;20.956;2022-10-16T07:16:53;95676.25;;;12.77;100.00
22047;BME280;11187;49.412;20.956;2022-10-16T07:19:40;95672.53;;;12.92;100.00
22047;BME280;11187;49.412;20.956;2022-10-16T07:22:13;95679.97;;;13.07;100.00
22047;BME280;11187;49.412;20.956;2022-10-16T07:25:07;95691.72;;;13.19;100.00
22047;BME280;11187;49.412;20.956;2022-10-16T07:27:41;95682.16;;;13.26;100.00
22047;BME280;11187;49.412;20.956;2022-10-16T07:30:28;95689.88;;;13.29;99.92
22047;BME280;11187;49.412;20.956;2022-10-16T07:33:01;95686.31;;;13.34;99.84
22047;BME280;11187;49.412;20.956;2022-10-16T07:35:55;95693.09;;;13.39;99.78
22047;BME280;11187;49.412;20.956;2022-10-16T07:38:55;95696.47;;;13.42;99.48
22047;BME280;11187;49.412;20.956;2022-10-16T07:41:28;95698.88;;;13.50;99.31
22047;BME280;11187;49.412;20.956;2022-10-16T07:44:23;95703.00;;;13.58;99.20
22047;BME280;11187;49.412;20.956;2022-10-16T07:46:58;95700.34;;;13.62;98.35
22047;BME280;11187;49.412;20.956;2022-10-16T07:49:52;95700.25;;;13.66;97.81
22047;BME280;11187;49.412;20.956;2022-10-16T07:52:46;95707.75;;;13.77;97.72
22047;BME280;11187;49.412;20.956;2022-10-16T07:55:19;95706.84;;;13.78;98.04
22047;BME280;11187;49.412;20.956;2022-10-16T07:58:06;95708.59;;;13.77;98.05
22047;BME280;11187;49.412;20.956;2022-10-16T08:00:39;95712.81;;;13.80;97.73
22047;BME280;11187;49.412;20.956;2022-10-16T08:03:33;95713.66;;;13.81;97.98
22047;BME280;11187;49.412;20.956;2022-10-16T08:06:06;95717.13;;;13.79;98.09
22047;BME280;11187;49.412;20.956;2022-10-16T08:09:07;95724.78;;;13.83;95.78
22047;BME280;11187;49.412;20.956;2022-10-16T08:12:02;95720.22;;;13.95;96.27
22047;BME280;11187;49.412;20.956;2022-10-16T08:14:35;95719.91;;;14.09;94.63
22047;BME280;11187;49.412;20.956;2022-10-16T08:17:26;95725.59;;;14.24;93.90
22047;BME280;11187;49.412;20.956;2022-10-16T08:19:59;95725.31;;;14.36;93.87
22047;BME280;11187;49.412;20.956;2022-10-16T08:22:46;95730.22;;;14.47;93.23
22047;BME280;11187;49.412;20.956;2022-10-16T08:25:20;95723.13;;;14.58;92.65
22047;BME280;11187;49.412;20.956;2022-10-16T08:28:16;95728.81;;;14.71;91.17
22047;BME280;11187;49.412;20.956;2022-10-16T08:30:49;95734.41;;;14.87;92.23
22047;BME280;11187;49.412;20.956;2022-10-16T08:33:44;95733.09;;;15.04;90.96
22047;BME280;11187;49.412;20.956;2022-10-16T08:36:39;95736.22;;;15.17;90.83
22047;BME280;11187;49.412;20.956;2022-10-16T08:39:34;95733.53;;;15.22;91.65
22047;BME280;11187;49.412;20.956;2022-10-16T08:45:46;95742.44;;;15.41;89.00
22047;BME280;11187;49.412;20.956;2022-10-16T08:48:49;95743.72;;;15.58;89.74
22047;BME280;11187;49.412;20.956;2022-10-16T08:51:44;95740.78;;;15.70;87.38
22047;BME280;11187;49.412;20.956;2022-10-16T08:54:45;95738.78;;;15.81;86.40
22047;BME280;11187;49.412;20.956;2022-10-16T08:57:22;95747.91;;;15.93;86.94
22047;BME280;11187;49.412;20.956;2022-10-16T09:00:13;95749.34;;;16.03;85.50
22047;BME280;11187;49.412;20.956;2022-10-16T09:02:59;95742.13;;;16.15;85.89
22047;BME280;11187;49.412;20.956;2022-10-16T09:05:57;95741.97;;;16.19;84.43
22047;BME280;11187;49.412;20.956;2022-10-16T09:11:46;95736.16;;;16.39;83.70
22047;BME280;11187;49.412;20.956;2022-10-16T09:17:27;95748.66;;;16.53;82.88
22047;BME280;11187;49.412;20.956;2022-10-16T09:23:27;95745.59;;;16.68;81.91
22047;BME280;11187;49.412;20.956;2022-10-16T09:26:22;95742.06;;;16.71;81.53
22047;BME280;11187;49.412;20.956;2022-10-16T09:28:55;95749.66;;;16.76;81.84
22047;BME280;11187;49.412;20.956;2022-10-16T09:31:42;95742.69;;;16.78;81.99
22047;BME280;11187;49.412;20.956;2022-10-16T09:34:35;95747.81;;;16.81;80.58
22047;BME280;11187;49.412;20.956;2022-10-16T09:37:30;95747.75;;;16.82;80.11
22047;BME280;11187;49.412;20.956;2022-10-16T09:40:26;95748.63;;;16.83;80.73
22047;BME280;11187;49.412;20.956;2022-10-16T09:46:00;95748.56;;;16.84;79.98
22047;BME280;11187;49.412;20.956;2022-10-16T09:48:39;95751.94;;;16.86;79.80
22047;BME280;11187;49.412;20.956;2022-10-16T09:51:35;95746.91;;;16.82;80.57
22047;BME280;11187;49.412;20.956;2022-10-16T09:57:07;95748.75;;;16.78;80.66
22047;BME280;11187;49.412;20.956;2022-10-16T09:59:56;95745.50;;;16.72;79.05
22047;BME280;11187;49.412;20.956;2022-10-16T10:02:50;95747.53;;;16.62;80.31
22047;BME280;11187;49.412;20.956;2022-10-16T10:05:48;95745.91;;;16.58;80.78
22047;BME280;11187;49.412;20.956;2022-10-16T10:08:26;95752.00;;;16.57;81.15
22047;BME280;11187;49.412;20.956;2022-10-16T10:11:13;95753.88;;;16.52;80.34
22047;BME280;11187;49.412;20.956;2022-10-16T10:13:46;95751.31;;;16.52;81.23
22047;BME280;11187;49.412;20.956;2022-10-16T10:16:40;95742.66;;;16.53;80.69
22047;BME280;11187;49.412;20.956;2022-10-16T10:22:44;95751.19;;;16.55;81.15
22047;BME280;11187;49.412;20.956;2022-10-16T10:25:52;95745.09;;;16.57;81.21
22047;BME280;11187;49.412;20.956;2022-10-16T10:31:21;95738.13;;;16.59;81.31
22047;BME280;11187;49.412;20.956;2022-10-16T10:34:17;95743.25;;;16.61;81.50
22047;BME280;11187;49.412;20.956;2022-10-16T10:46:18;95748.94;;;16.72;82.96
22047;BME280;11187;49.412;20.956;2022-10-16T10:55:10;95747.88;;;16.78;81.74
22047;BME280;11187;49.412;20.956;2022-10-16T10:57:57;95752.13;;;16.80;82.15
22047;BME280;11187;49.412;20.956;2022-10-16T11:01:17;95745.34;;;16.76;81.62
22047;BME280;11187;49.412;20.956;2022-10-16T11:04:05;95747.03;;;16.77;82.77
22047;BME280;11187;49.412;20.956;2022-10-16T11:07:10;95739.38;;;16.74;81.78
22047;BME280;11187;49.412;20.956;2022-10-16T11:10:15;95735.94;;;16.74;81.06
22047;BME280;11187;49.412;20.956;2022-10-16T11:13:51;95743.59;;;16.77;81.83
22047;BME280;11187;49.412;20.956;2022-10-16T11:16:29;95739.28;;;16.77;83.22
22047;BME280;11187;49.412;20.956;2022-10-16T11:19:41;95744.59;;;16.73;82.06
22047;BME280;11187;49.412;20.956;2022-10-16T11:22:36;95737.59;;;16.76;80.69
22047;BME280;11187;49.412;20.956;2022-10-16T11:25:33;95733.19;;;16.80;81.91
22047;BME280;11187;49.412;20.956;2022-10-16T11:28:32;95737.47;;;16.81;80.95
22047;BME280;11187;49.412;20.956;2022-10-16T11:31:29;95732.22;;;16.82;81.33
22047;BME280;11187;49.412;20.956;2022-10-16T11:37:25;95740.59;;;16.90;78.45
22047;BME280;11187;49.412;20.956;2022-10-16T11:40:34;95738.66;;;16.97;77.50
22047;BME280;11187;49.412;20.956;2022-10-16T11:43:41;95737.69;;;17.00;76.59
22047;BME280;11187;49.412;20.956;2022-10-16T11:46:38;95741.09;;;17.02;77.52
22047;BME280;11187;49.412;20.956;2022-10-16T11:49:50;95743.63;;;17.03;76.23
22047;BME280;11187;49.412;20.956;2022-10-16T11:55:47;95744.34;;;17.07;76.65
22047;BME280;11187;49.412;20.956;2022-10-16T11:58:33;95732.22;;;17.09;76.89
22047;BME280;11187;49.412;20.956;2022-10-16T12:01:31;95737.28;;;17.12;76.43
22047;BME280;11187;49.412;20.956;2022-10-16T12:07:27;95739.81;;;17.14;76.27
22047;BME280;11187;49.412;20.956;2022-10-16T12:10:38;95734.53;;;17.17;77.37
22047;BME280;11187;49.412;20.956;2022-10-16T12:19:14;95734.44;;;17.20;76.92
22047;BME280;11187;49.412;20.956;2022-10-16T12:21:49;95718.16;;;17.16;77.68
22047;BME280;11187;49.412;20.956;2022-10-16T12:24:43;95716.69;;;17.09;78.13
22047;BME280;11187;49.412;20.956;2022-10-16T12:27:38;95726.28;;;17.05;76.53
22047;BME280;11187;49.412;20.956;2022-10-16T12:30:35;95734.13;;;17.04;75.60
22047;BME280;11187;49.412;20.956;2022-10-16T12:33:30;95729.78;;;17.04;74.70
22047;BME280;11187;49.412;20.956;2022-10-16T12:36:34;95739.22;;;17.05;75.92
22047;BME280;11187;49.412;20.956;2022-10-16T12:39:28;95741.81;;;17.05;75.22
22047;BME280;11187;49.412;20.956;2022-10-16T12:42:04;95733.16;;;17.06;74.97
22047;BME280;11187;49.412;20.956;2022-10-16T12:44:51;95740.88;;;17.08;74.71
22047;BME280;11187;49.412;20.956;2022-10-16T12:53:19;95753.91;;;17.05;73.88
22047;BME280;11187;49.412;20.956;2022-10-16T13:04:58;95761.91;;;16.99;75.12
22047;BME280;11187;49.412;20.956;2022-10-16T13:08:05;95758.69;;;16.90;74.62
22047;BME280;11187;49.412;20.956;2022-10-16T13:16:56;95764.22;;;16.80;74.88
22047;BME280;11187;49.412;20.956;2022-10-16T13:22:51;95767.72;;;16.77;74.65
22047;BME280;11187;49.412;20.956;2022-10-16T13:28:38;95768.84;;;16.68;74.41
22047;BME280;11187;49.412;20.956;2022-10-16T13:31:17;95770.63;;;16.66;74.44
22047;BME280;11187;49.412;20.956;2022-10-16T13:34:17;95779.44;;;16.61;74.22
22047;BME280;11187;49.412;20.956;2022-10-16T13:36:52;95777.84;;;16.57;74.52
22047;BME280;11187;49.412;20.956;2022-10-16T13:39:46;95782.31;;;16.52;74.36
22047;BME280;11187;49.412;20.956;2022-10-16T13:42:25;95777.22;;;16.48;74.54
22047;BME280;11187;49.412;20.956;2022-10-16T13:45:22;95786.84;;;16.45;75.78
22047;BME280;11187;49.412;20.956;2022-10-16T13:48:05;95784.34;;;16.42;76.18
22047;BME280;11187;49.412;20.956;2022-10-16T13:51:06;95781.03;;;16.37;75.90
22047;BME280;11187;49.412;20.956;2022-10-16T13:53:39;95784.53;;;16.36;75.72
22047;BME280;11187;49.412;20.956;2022-10-16T13:56:30;95781.97;;;16.34;75.87
22047;BME280;11187;49.412;20.956;2022-10-16T13:59:06;95780.31;;;16.33;76.19
22047;BME280;11187;49.412;20.956;2022-10-16T14:02:08;95784.59;;;16.33;76.66
22047;BME280;11187;49.412;20.956;2022-10-16T14:05:08;95782.94;;;16.32;77.33
22047;BME280;11187;49.412;20.956;2022-10-16T14:07:42;95787.25;;;16.31;77.30
22047;BME280;11187;49.412;20.956;2022-10-16T14:10:36;95788.06;;;16.33;76.75
22047;BME280;11187;49.412;20.956;2022-10-16T14:13:17;95787.13;;;16.36;77.42
22047;BME280;11187;49.412;20.956;2022-10-16T14:16:10;95794.88;;;16.36;77.96
22047;BME280;11187;49.412;20.956;2022-10-16T14:18:57;95792.22;;;16.37;77.02
22047;BME280;11187;49.412;20.956;2022-10-16T14:21:53;95796.50;;;16.38;76.16
22047;BME280;11187;49.412;20.956;2022-10-16T14:24:36;95798.25;;;16.38;77.31
22047;BME280;11187;49.412;20.956;2022-10-16T14:27:36;95805.22;;;16.36;75.78
22047;BME280;11187;49.412;20.956;2022-10-16T14:30:33;95805.13;;;16.37;76.35
22047;BME280;11187;49.412;20.956;2022-10-16T14:39:05;95815.84;;;16.25;76.48
22047;BME280;11187;49.412;20.956;2022-10-16T14:41:48;95809.88;;;16.23;78.13
22047;BME280;11187;49.412;20.956;2022-10-16T14:44:35;95810.91;;;16.17;78.74
22047;BME280;11187;49.412;20.956;2022-10-16T14:47:13;95812.84;;;16.11;79.33
22047;BME280;11187;49.412;20.956;2022-10-16T14:50:02;95815.69;;;16.01;79.47
22047;BME280;11187;49.412;20.956;2022-10-16T14:52:35;95823.59;;;15.95;80.51
22047;BME280;11187;49.412;20.956;2022-10-16T14:55:24;95812.56;;;15.90;80.32
22047;BME280;11187;49.412;20.956;2022-10-16T14:57:57;95818.69;;;15.86;80.11
22047;BME280;11187;49.412;20.956;2022-10-16T15:00:44;95818.03;;;15.78;80.72
22047;BME280;11187;49.412;20.956;2022-10-16T15:03:17;95820.81;;;15.72;80.98
22047;BME280;11187;49.412;20.956;2022-10-16T15:06:10;95827.88;;;15.63;81.90
22047;BME280;11187;49.412;20.956;2022-10-16T15:08:43;95834.91;;;15.58;82.39
22047;BME280;11187;49.412;20.956;2022-10-16T15:11:31;95832.47;;;15.52;82.59
22047;BME280;11187;49.412;20.956;2022-10-16T15:14:05;95830.03;;;15.46;83.12
22047;BME280;11187;49.412;20.956;2022-10-16T15:16:59;95843.16;;;15.38;83.15
22047;BME280;11187;49.412;20.956;2022-10-16T15:19:57;95845.84;;;15.34;83.67
22047;BME280;11187;49.412;20.956;2022-10-16T15:22:31;95849.38;;;15.31;83.60
22047;BME280;11187;49.412;20.956;2022-10-16T15:25:31;95846.91;;;15.27;82.08
22047;BME280;11187;49.412;20.956;2022-10-16T15:28:05;95842.56;;;15.29;82.33
22047;BME280;11187;49.412;20.956;2022-10-16T15:30:54;95844.31;;;15.27;82.37
22047;BME280;11187;49.412;20.956;2022-10-16T15:33:27;95844.31;;;15.27;81.45
22047;BME280;11187;49.412;20.956;2022-10-16T15:36:26;95845.19;;;15.25;83.26
22047;BME280;11187;49.412;20.956;2022-10-16T15:39:23;95841.84;;;15.22;84.50
22047;BME280;11187;49.412;20.956;2022-10-16T15:42:20;95843.75;;;15.15;84.25
22047;BME280;11187;49.412;20.956;2022-10-16T15:45:14;95837.88;;;15.09;84.95
22047;BME280;11187;49.412;20.956;2022-10-16T15:47:47;95838.00;;;15.04;85.40
22047;BME280;11187;49.412;20.956;2022-10-16T15:50:37;95843.25;;;14.99;85.79
22047;BME280;11187;49.412;20.956;2022-10-16T15:53:15;95845.94;;;14.95;86.51
22047;BME280;11187;49.412;20.956;2022-10-16T15:56:03;95845.16;;;14.91;86.46
22047;BME280;11187;49.412;20.956;2022-10-16T15:58:36;95847.00;;;14.88;86.48